sensor_id;sensor_type;location;lat;lon;timestamp;pressure;altitude;pressure_sealevel;temperature;humidity
10310;BME280;5200;43.236;27.986;2024-01-25T00:01:14;100186.84;;;2.61;100.00
10310;BME280;5200;43.236;27.986;2024-01-25T00:03:41;100189.78;;;2.54;100.00
10310;BME280;5200;43.236;27.986;2024-01-25T00:06:08;100197.22;;;2.61;100.00
10310;BME280;5200;43.236;27.986;2024-01-25T00:08:35;100212.41;;;2.52;100.00
10310;BME280;5200;43.236;27.986;2024-01-25T00:11:02;100206.63;;;2.47;100.00
10310;BME280;5200;43.236;27.986;2024-01-25T00:13:29;100211.94;;;2.44;100.00
10310;BME280;5200;43.236;27.986;2024-01-25T00:15:56;100195.50;;;2.28;100.00
10310;BME280;5200;43.236;27.986;2024-01-25T00:18:24;100191.47;;;2.22;100.00
10310;BME280;5200;43.236;27.986;2024-01-25T00:20:51;100188.19;;;2.19;100.00
10310;BME280;5200;43.236;27.986;2024-01-25T00:23:18;100206.88;;;2.25;100.00
10310;BME280;5200;43.236;27.986;2024-01-25T00:25:44;100197.66;;;2.20;100.00
10310;BME280;5200;43.236;27.986;2024-01-25T00:28:11;100182.09;;;2.20;100.00
10310;BME280;5200;43.236;27.986;2024-01-25T00:30:38;100183.09;;;2.17;100.00
10310;BME280;5200;43.236;27.986;2024-01-25T00:33:05;100174.84;;;2.09;100.00
10310;BME280;5200;43.236;27.986;2024-01-25T00:35:34;100177.72;;;2.20;100.00
10310;BME280;5200;43.236;27.986;2024-01-25T00:38:01;100152.41;;;2.08;100.00
10310;BME280;5200;43.236;27.986;2024-01-25T00:40:29;100168.50;;;2.15;100.00
10310;BME280;5200;43.236;27.986;2024-01-25T00:42:56;100153.94;;;2.12;100.00
10310;BME280;5200;43.236;27.986;2024-01-25T00:45:24;100167.09;;;2.25;100.00
10310;BME280;5200;43.236;27.986;2024-01-25T00:47:51;100176.47;;;2.27;100.00
10310;BME280;5200;43.236;27.986;2024-01-25T00:50:19;100165.09;;;2.30;100.00
10310;BME280;5200;43.236;27.986;2024-01-25T00:52:51;100148.28;;;2.21;100.00
10310;BME280;5200;43.236;27.986;2024-01-25T00:55:18;100160.34;;;2.38;100.00
10310;BME280;5200;43.236;27.986;2024-01-25T00:57:46;100160.00;;;2.44;100.00
10310;BME280;5200;43.236;27.986;2024-01-25T01:00:13;100137.25;;;2.49;100.00
10310;BME280;5200;43.236;27.986;2024-01-25T01:02:43;100106.41;;;2.43;100.00
10310;BME280;5200;43.236;27.986;2024-01-25T01:05:11;100101.03;;;2.46;100.00
10310;BME280;5200;43.236;27.986;2024-01-25T01:07:39;100088.81;;;2.48;100.00
10310;BME280;5200;43.236;27.986;2024-01-25T01:10:08;100105.97;;;2.67;100.00
10310;BME280;5200;43.236;27.986;2024-01-25T01:12:36;100104.31;;;2.66;100.00
10310;BME280;5200;43.236;27.986;2024-01-25T01:15:03;100089.56;;;2.50;100.00
10310;BME280;5200;43.236;27.986;2024-01-25T01:17:30;100085.31;;;2.49;100.00
10310;BME280;5200;43.236;27.986;2024-01-25T01:19:57;100098.88;;;2.54;100.00
10310;BME280;5200;43.236;27.986;2024-01-25T01:22:24;100068.22;;;2.45;100.00
10310;BME280;5200;43.236;27.986;2024-01-25T01:24:51;100067.69;;;2.54;100.00
10310;BME280;5200;43.236;27.986;2024-01-25T01:27:19;100038.97;;;2.42;100.00
10310;BME280;5200;43.236;27.986;2024-01-25T01:29:46;100042.88;;;2.49;100.00
10310;BME280;5200;43.236;27.986;2024-01-25T01:32:13;100036.53;;;2.54;100.00
10310;BME280;5200;43.236;27.986;2024-01-25T01:34:40;100029.66;;;2.53;100.00
10310;BME280;5200;43.236;27.986;2024-01-25T01:37:07;100007.53;;;2.46;100.00
10310;BME280;5200;43.236;27.986;2024-01-25T01:39:34;100000.69;;;2.45;100.00
10310;BME280;5200;43.236;27.986;2024-01-25T01:42:01;100001.75;;;2.57;100.00
10310;BME280;5200;43.236;27.986;2024-01-25T01:44:30;100001.50;;;2.62;100.00
10310;BME280;5200;43.236;27.986;2024-01-25T01:46:56;100013.38;;;2.66;100.00
10310;BME280;5200;43.236;27.986;2024-01-25T01:49:23;99999.13;;;2.73;100.00
10310;BME280;5200;43.236;27.986;2024-01-25T01:51:50;99962.03;;;2.55;100.00
10310;BME280;5200;43.236;27.986;2024-01-25T01:54:17;99966.63;;;2.66;100.00
10310;BME280;5200;43.236;27.986;2024-01-25T01:56:44;99988.03;;;2.85;100.00
10310;BME280;5200;43.236;27.986;2024-01-25T01:59:11;99974.09;;;2.86;100.00
10310;BME280;5200;43.236;27.986;2024-01-25T02:01:40;99977.09;;;2.94;100.00
10310;BME280;5200;43.236;27.986;2024-01-25T02:04:06;99958.78;;;2.96;100.00
10310;BME280;5200;43.236;27.986;2024-01-25T02:06:34;99967.63;;;3.08;100.00
10310;BME280;5200;43.236;27.986;2024-01-25T02:09:00;99972.56;;;3.27;100.00
10310;BME280;5200;43.236;27.986;2024-01-25T02:11:28;99969.69;;;3.31;100.00
10310;BME280;5200;43.236;27.986;2024-01-25T02:13:55;99947.03;;;3.33;100.00
10310;BME280;5200;43.236;27.986;2024-01-25T02:16:22;99961.16;;;3.44;100.00
10310;BME280;5200;43.236;27.986;2024-01-25T02:18:50;99961.59;;;3.50;100.00
10310;BME280;5200;43.236;27.986;2024-01-25T02:21:19;99944.44;;;3.48;100.00
10310;BME280;5200;43.236;27.986;2024-01-25T02:23:48;99929.41;;;3.53;100.00
10310;BME280;5200;43.236;27.986;2024-01-25T02:26:14;99946.91;;;3.78;98.99
10310;BME280;5200;43.236;27.986;2024-01-25T02:28:41;99946.78;;;3.94;96.63
10310;BME280;5200;43.236;27.986;2024-01-25T02:31:08;99934.06;;;3.89;95.98
10310;BME280;5200;43.236;27.986;2024-01-25T02:33:35;99943.00;;;4.12;95.90
10310;BME280;5200;43.236;27.986;2024-01-25T02:36:02;99927.25;;;4.01;95.50
10310;BME280;5200;43.236;27.986;2024-01-25T02:38:29;99937.81;;;4.12;95.78
10310;BME280;5200;43.236;27.986;2024-01-25T02:40:57;99922.78;;;4.03;96.23
10310;BME280;5200;43.236;27.986;2024-01-25T02:43:24;99925.38;;;4.03;96.88
10310;BME280;5200;43.236;27.986;2024-01-25T02:45:52;99904.94;;;3.97;96.43
10310;BME280;5200;43.236;27.986;2024-01-25T02:48:19;99900.88;;;3.93;96.92
10310;BME280;5200;43.236;27.986;2024-01-25T02:50:46;99903.94;;;3.85;96.69
10310;BME280;5200;43.236;27.986;2024-01-25T02:53:13;99893.28;;;3.75;96.48
10310;BME280;5200;43.236;27.986;2024-01-25T02:55:39;99897.16;;;3.83;97.18
10310;BME280;5200;43.236;27.986;2024-01-25T02:58:08;99888.44;;;3.84;96.27
10310;BME280;5200;43.236;27.986;2024-01-25T03:00:35;99888.97;;;3.89;96.77
10310;BME280;5200;43.236;27.986;2024-01-25T03:03:01;99863.63;;;3.78;96.68
10310;BME280;5200;43.236;27.986;2024-01-25T03:05:28;99875.59;;;3.80;96.35
10310;BME280;5200;43.236;27.986;2024-01-25T03:07:55;99878.31;;;3.79;96.05
10310;BME280;5200;43.236;27.986;2024-01-25T03:10:23;99879.91;;;3.81;95.95
10310;BME280;5200;43.236;27.986;2024-01-25T03:12:50;99861.75;;;3.80;96.84
10310;BME280;5200;43.236;27.986;2024-01-25T03:15:17;99859.06;;;3.81;95.58
10310;BME280;5200;43.236;27.986;2024-01-25T03:17:44;99840.69;;;3.70;95.90
10310;BME280;5200;43.236;27.986;2024-01-25T03:20:11;99832.00;;;3.84;93.87
10310;BME280;5200;43.236;27.986;2024-01-25T03:22:38;99835.06;;;3.91;92.80
10310;BME280;5200;43.236;27.986;2024-01-25T03:25:05;99831.25;;;4.09;91.65
10310;BME280;5200;43.236;27.986;2024-01-25T03:27:32;99829.28;;;4.13;90.47
10310;BME280;5200;43.236;27.986;2024-01-25T03:29:59;99841.59;;;4.23;88.81
10310;BME280;5200;43.236;27.986;2024-01-25T03:32:27;99822.84;;;4.31;87.90
10310;BME280;5200;43.236;27.986;2024-01-25T03:34:54;99851.03;;;4.52;86.21
10310;BME280;5200;43.236;27.986;2024-01-25T03:37:20;99823.38;;;4.49;84.59
10310;BME280;5200;43.236;27.986;2024-01-25T03:39:47;99828.69;;;4.60;83.75
10310;BME280;5200;43.236;27.986;2024-01-25T03:42:14;99821.31;;;4.67;82.85
10310;BME280;5200;43.236;27.986;2024-01-25T03:44:41;99803.47;;;4.74;81.64
10310;BME280;5200;43.236;27.986;2024-01-25T03:47:10;99816.91;;;4.93;80.69
10310;BME280;5200;43.236;27.986;2024-01-25T03:49:38;99813.19;;;4.84;80.18
10310;BME280;5200;43.236;27.986;2024-01-25T03:52:05;99821.72;;;4.99;79.91
10310;BME280;5200;43.236;27.986;2024-01-25T03:54:32;99821.06;;;4.96;80.01
10310;BME280;5200;43.236;27.986;2024-01-25T03:56:59;99807.84;;;4.86;79.56
10310;BME280;5200;43.236;27.986;2024-01-25T03:59:26;99844.53;;;4.96;79.30
10310;BME280;5200;43.236;27.986;2024-01-25T04:01:53;99866.34;;;4.95;79.64
10310;BME280;5200;43.236;27.986;2024-01-25T04:04:19;99874.25;;;4.93;79.80
10310;BME280;5200;43.236;27.986;2024-01-25T04:06:48;99884.81;;;4.92;79.66
10310;BME280;5200;43.236;27.986;2024-01-25T04:09:15;99903.06;;;5.04;80.16
10310;BME280;5200;43.236;27.986;2024-01-25T04:11:42;99897.84;;;5.04;80.31
10310;BME280;5200;43.236;27.986;2024-01-25T04:14:08;99892.09;;;4.99;80.29
10310;BME280;5200;43.236;27.986;2024-01-25T04:16:35;99891.97;;;5.01;80.77
10310;BME280;5200;43.236;27.986;2024-01-25T04:19:02;99904.53;;;5.08;81.42
10310;BME280;5200;43.236;27.986;2024-01-25T04:21:29;99894.81;;;5.11;81.21
10310;BME280;5200;43.236;27.986;2024-01-25T04:23:57;99905.03;;;5.14;81.43
10310;BME280;5200;43.236;27.986;2024-01-25T04:26:24;99881.47;;;5.02;81.94
10310;BME280;5200;43.236;27.986;2024-01-25T04:28:51;99870.53;;;4.97;81.94
10310;BME280;5200;43.236;27.986;2024-01-25T04:31:18;99897.72;;;5.19;82.36
10310;BME280;5200;43.236;27.986;2024-01-25T04:33:45;99883.53;;;5.23;82.22
10310;BME280;5200;43.236;27.986;2024-01-25T04:36:12;99873.53;;;5.17;82.94
10310;BME280;5200;43.236;27.986;2024-01-25T04:38:39;99861.63;;;5.13;83.32
10310;BME280;5200;43.236;27.986;2024-01-25T04:41:07;99857.78;;;5.05;83.98
10310;BME280;5200;43.236;27.986;2024-01-25T04:43:34;99857.38;;;5.12;84.81
10310;BME280;5200;43.236;27.986;2024-01-25T04:46:02;99837.56;;;4.96;85.46
10310;BME280;5200;43.236;27.986;2024-01-25T04:48:29;99839.63;;;4.91;86.27
10310;BME280;5200;43.236;27.986;2024-01-25T04:50:56;99836.09;;;4.79;87.13
10310;BME280;5200;43.236;27.986;2024-01-25T04:53:24;99836.97;;;4.80;87.74
10310;BME280;5200;43.236;27.986;2024-01-25T04:55:51;99850.59;;;4.83;88.38
10310;BME280;5200;43.236;27.986;2024-01-25T04:58:19;99856.03;;;4.80;89.07
10310;BME280;5200;43.236;27.986;2024-01-25T05:00:46;99849.34;;;4.76;89.45
10310;BME280;5200;43.236;27.986;2024-01-25T05:03:13;99840.19;;;4.71;89.80
10310;BME280;5200;43.236;27.986;2024-01-25T05:05:40;99839.44;;;4.56;90.50
10310;BME280;5200;43.236;27.986;2024-01-25T05:08:06;99852.97;;;4.61;91.59
10310;BME280;5200;43.236;27.986;2024-01-25T05:10:33;99859.44;;;4.55;92.72
10310;BME280;5200;43.236;27.986;2024-01-25T05:13:00;99838.78;;;4.39;93.18
10310;BME280;5200;43.236;27.986;2024-01-25T05:15:28;99855.28;;;4.40;93.97
10310;BME280;5200;43.236;27.986;2024-01-25T05:17:55;99816.47;;;4.22;94.02
10310;BME280;5200;43.236;27.986;2024-01-25T05:20:22;99835.84;;;4.18;95.02
10310;BME280;5200;43.236;27.986;2024-01-25T05:22:53;99836.03;;;4.15;96.15
10310;BME280;5200;43.236;27.986;2024-01-25T05:25:20;99845.53;;;4.16;96.38
10310;BME280;5200;43.236;27.986;2024-01-25T05:27:47;99844.38;;;4.08;97.59
10310;BME280;5200;43.236;27.986;2024-01-25T05:30:14;99837.16;;;3.98;98.47
10310;BME280;5200;43.236;27.986;2024-01-25T05:32:42;99817.97;;;3.87;98.51
10310;BME280;5200;43.236;27.986;2024-01-25T05:35:09;99830.78;;;3.90;99.36
10310;BME280;5200;43.236;27.986;2024-01-25T05:37:36;99836.09;;;3.88;100.00
10310;BME280;5200;43.236;27.986;2024-01-25T05:40:04;99819.06;;;3.70;100.00
10310;BME280;5200;43.236;27.986;2024-01-25T05:42:31;99818.31;;;3.68;100.00
10310;BME280;5200;43.236;27.986;2024-01-25T05:44:58;99838.44;;;3.78;100.00
10310;BME280;5200;43.236;27.986;2024-01-25T05:47:25;99832.91;;;3.70;100.00
10310;BME280;5200;43.236;27.986;2024-01-25T05:49:53;99846.53;;;3.74;100.00
10310;BME280;5200;43.236;27.986;2024-01-25T05:52:20;99829.22;;;3.60;100.00
10310;BME280;5200;43.236;27.986;2024-01-25T05:54:47;99831.38;;;3.53;100.00
10310;BME280;5200;43.236;27.986;2024-01-25T05:57:14;99840.75;;;3.56;100.00
10310;BME280;5200;43.236;27.986;2024-01-25T05:59:41;99853.56;;;3.59;100.00
10310;BME280;5200;43.236;27.986;2024-01-25T06:02:08;99828.69;;;3.41;100.00
10310;BME280;5200;43.236;27.986;2024-01-25T06:04:35;99814.31;;;3.35;100.00
10310;BME280;5200;43.236;27.986;2024-01-25T06:07:04;99862.66;;;3.52;100.00
10310;BME280;5200;43.236;27.986;2024-01-25T06:09:31;99842.81;;;3.51;100.00
10310;BME280;5200;43.236;27.986;2024-01-25T06:11:58;99867.97;;;3.65;100.00
10310;BME280;5200;43.236;27.986;2024-01-25T06:14:25;99829.00;;;3.63;100.00
10310;BME280;5200;43.236;27.986;2024-01-25T06:16:51;99829.63;;;3.67;100.00
10310;BME280;5200;43.236;27.986;2024-01-25T06:19:18;99846.69;;;3.85;100.00
10310;BME280;5200;43.236;27.986;2024-01-25T06:21:45;99848.94;;;4.04;100.00
10310;BME280;5200;43.236;27.986;2024-01-25T06:24:13;99846.06;;;4.21;100.00
10310;BME280;5200;43.236;27.986;2024-01-25T06:26:40;99857.97;;;4.38;100.00
10310;BME280;5200;43.236;27.986;2024-01-25T06:29:07;99868.63;;;4.48;100.00
10310;BME280;5200;43.236;27.986;2024-01-25T06:31:41;99848.81;;;4.45;100.00
10310;BME280;5200;43.236;27.986;2024-01-25T06:34:09;99892.19;;;4.59;100.00
10310;BME280;5200;43.236;27.986;2024-01-25T06:36:36;99890.41;;;4.47;100.00
10310;BME280;5200;43.236;27.986;2024-01-25T06:39:03;99890.81;;;4.41;100.00
10310;BME280;5200;43.236;27.986;2024-01-25T06:41:32;99889.19;;;4.26;100.00
10310;BME280;5200;43.236;27.986;2024-01-25T06:43:59;99859.03;;;4.09;100.00
10310;BME280;5200;43.236;27.986;2024-01-25T06:46:26;99861.03;;;4.05;100.00
10310;BME280;5200;43.236;27.986;2024-01-25T06:48:53;99855.53;;;4.10;100.00
10310;BME280;5200;43.236;27.986;2024-01-25T06:51:20;99860.22;;;4.17;100.00
10310;BME280;5200;43.236;27.986;2024-01-25T06:53:47;99846.69;;;4.12;100.00
10310;BME280;5200;43.236;27.986;2024-01-25T06:56:14;99848.81;;;4.33;100.00
10310;BME280;5200;43.236;27.986;2024-01-25T06:58:42;99822.47;;;4.50;100.00
10310;BME280;5200;43.236;27.986;2024-01-25T07:01:09;99835.28;;;4.79;100.00
10310;BME280;5200;43.236;27.986;2024-01-25T07:03:36;99821.53;;;4.90;100.00
10310;BME280;5200;43.236;27.986;2024-01-25T07:06:03;99840.25;;;5.07;100.00
10310;BME280;5200;43.236;27.986;2024-01-25T07:08:30;99819.38;;;5.07;100.00
10310;BME280;5200;43.236;27.986;2024-01-25T07:10:57;99842.50;;;5.38;100.00
10310;BME280;5200;43.236;27.986;2024-01-25T07:13:26;99836.22;;;5.40;100.00
10310;BME280;5200;43.236;27.986;2024-01-25T07:15:55;99839.41;;;5.57;100.00
10310;BME280;5200;43.236;27.986;2024-01-25T07:18:21;99833.28;;;5.69;100.00
10310;BME280;5200;43.236;27.986;2024-01-25T07:20:49;99869.03;;;5.92;100.00
10310;BME280;5200;43.236;27.986;2024-01-25T07:23:17;99840.44;;;5.91;100.00
10310;BME280;5200;43.236;27.986;2024-01-25T07:25:44;99843.13;;;6.02;100.00
10310;BME280;5200;43.236;27.986;2024-01-25T07:28:10;99833.75;;;6.00;100.00
10310;BME280;5200;43.236;27.986;2024-01-25T07:30:37;99849.03;;;6.28;100.00
10310;BME280;5200;43.236;27.986;2024-01-25T07:33:06;99847.16;;;6.42;100.00
10310;BME280;5200;43.236;27.986;2024-01-25T07:35:33;99845.06;;;6.58;98.45
10310;BME280;5200;43.236;27.986;2024-01-25T07:38:00;99856.38;;;6.70;97.92
10310;BME280;5200;43.236;27.986;2024-01-25T07:40:27;99856.72;;;6.76;97.68
10310;BME280;5200;43.236;27.986;2024-01-25T07:42:54;99867.22;;;6.99;97.26
10310;BME280;5200;43.236;27.986;2024-01-25T07:45:21;99834.88;;;7.00;95.16
10310;BME280;5200;43.236;27.986;2024-01-25T07:47:48;99873.53;;;7.30;95.45
10310;BME280;5200;43.236;27.986;2024-01-25T07:50:16;99869.34;;;7.50;93.48
10310;BME280;5200;43.236;27.986;2024-01-25T07:52:43;99846.97;;;7.57;92.94
10310;BME280;5200;43.236;27.986;2024-01-25T07:55:10;99854.19;;;7.76;91.19
10310;BME280;5200;43.236;27.986;2024-01-25T07:57:37;99853.75;;;7.92;89.02
10310;BME280;5200;43.236;27.986;2024-01-25T08:00:05;99856.25;;;7.94;87.68
10310;BME280;5200;43.236;27.986;2024-01-25T08:02:33;99836.22;;;8.04;86.81
10310;BME280;5200;43.236;27.986;2024-01-25T08:05:00;99851.50;;;8.20;86.99
10310;BME280;5200;43.236;27.986;2024-01-25T08:07:28;99827.88;;;8.31;85.20
10310;BME280;5200;43.236;27.986;2024-01-25T08:09:55;99836.88;;;8.50;83.83
10310;BME280;5200;43.236;27.986;2024-01-25T08:12:23;99830.25;;;8.76;82.08
10310;BME280;5200;43.236;27.986;2024-01-25T08:14:50;99864.28;;;9.18;80.94
10310;BME280;5200;43.236;27.986;2024-01-25T08:17:17;99875.72;;;9.48;77.91
10310;BME280;5200;43.236;27.986;2024-01-25T08:19:45;99878.78;;;9.53;77.65
10310;BME280;5200;43.236;27.986;2024-01-25T08:22:11;99876.19;;;9.72;77.72
10310;BME280;5200;43.236;27.986;2024-01-25T08:24:40;99863.94;;;9.92;75.49
10310;BME280;5200;43.236;27.986;2024-01-25T08:27:07;99878.03;;;10.11;73.73
10310;BME280;5200;43.236;27.986;2024-01-25T08:29:34;99869.47;;;10.19;74.35
10310;BME280;5200;43.236;27.986;2024-01-25T08:32:02;99858.13;;;10.28;72.49
10310;BME280;5200;43.236;27.986;2024-01-25T08:34:29;99866.97;;;10.36;72.68
10310;BME280;5200;43.236;27.986;2024-01-25T08:36:56;99883.31;;;10.60;71.79
10310;BME280;5200;43.236;27.986;2024-01-25T08:39:23;99877.63;;;10.64;71.57
10310;BME280;5200;43.236;27.986;2024-01-25T08:41:52;99869.75;;;10.54;69.51
10310;BME280;5200;43.236;27.986;2024-01-25T08:44:19;99858.97;;;10.38;70.99
10310;BME280;5200;43.236;27.986;2024-01-25T08:46:46;99870.59;;;10.45;70.09
10310;BME280;5200;43.236;27.986;2024-01-25T08:49:13;99856.72;;;10.24;70.44
10310;BME280;5200;43.236;27.986;2024-01-25T08:51:39;99876.78;;;10.15;71.63
10310;BME280;5200;43.236;27.986;2024-01-25T08:54:06;99876.50;;;10.08;71.71
10310;BME280;5200;43.236;27.986;2024-01-25T08:56:34;99873.59;;;9.92;72.82
10310;BME280;5200;43.236;27.986;2024-01-25T08:59:02;99879.22;;;9.78;74.10
10310;BME280;5200;43.236;27.986;2024-01-25T09:01:29;99868.41;;;9.61;75.74
10310;BME280;5200;43.236;27.986;2024-01-25T09:03:56;99873.09;;;9.48;76.32
10310;BME280;5200;43.236;27.986;2024-01-25T09:06:27;99881.66;;;9.50;78.51
10310;BME280;5200;43.236;27.986;2024-01-25T09:08:54;99858.78;;;9.31;78.40
10310;BME280;5200;43.236;27.986;2024-01-25T09:11:21;99875.84;;;9.46;80.10
10310;BME280;5200;43.236;27.986;2024-01-25T09:13:48;99860.22;;;9.55;79.88
10310;BME280;5200;43.236;27.986;2024-01-25T09:16:17;99874.28;;;9.94;80.24
10310;BME280;5200;43.236;27.986;2024-01-25T09:18:43;99873.50;;;10.32;78.61
10310;BME280;5200;43.236;27.986;2024-01-25T09:21:10;99875.81;;;10.65;77.18
10310;BME280;5200;43.236;27.986;2024-01-25T09:23:37;99879.50;;;10.91;73.96
10310;BME280;5200;43.236;27.986;2024-01-25T09:26:04;99882.41;;;10.88;73.67
10310;BME280;5200;43.236;27.986;2024-01-25T09:28:31;99892.66;;;10.82;73.68
10310;BME280;5200;43.236;27.986;2024-01-25T09:30:58;99896.00;;;10.74;75.22
10310;BME280;5200;43.236;27.986;2024-01-25T09:33:26;99897.94;;;10.72;74.98
10310;BME280;5200;43.236;27.986;2024-01-25T09:35:53;99896.16;;;10.63;76.45
10310;BME280;5200;43.236;27.986;2024-01-25T09:38:19;99892.19;;;10.58;77.10
10310;BME280;5200;43.236;27.986;2024-01-25T09:40:46;99872.53;;;10.33;76.99
10310;BME280;5200;43.236;27.986;2024-01-25T09:43:14;99868.91;;;10.15;77.58
10310;BME280;5200;43.236;27.986;2024-01-25T09:45:41;99891.03;;;10.12;79.02
10310;BME280;5200;43.236;27.986;2024-01-25T09:48:08;99888.28;;;10.14;79.50
10310;BME280;5200;43.236;27.986;2024-01-25T09:50:37;99885.25;;;10.19;78.33
10310;BME280;5200;43.236;27.986;2024-01-25T09:53:05;99887.47;;;10.23;78.89
10310;BME280;5200;43.236;27.986;2024-01-25T09:55:35;99894.69;;;10.31;79.10
10310;BME280;5200;43.236;27.986;2024-01-25T09:58:07;99875.81;;;10.06;80.20
10310;BME280;5200;43.236;27.986;2024-01-25T10:00:33;99880.22;;;9.96;82.27
10310;BME280;5200;43.236;27.986;2024-01-25T10:03:01;99870.81;;;9.84;83.26
10310;BME280;5200;43.236;27.986;2024-01-25T10:05:28;99884.53;;;9.97;83.81
10310;BME280;5200;43.236;27.986;2024-01-25T10:07:57;99885.78;;;9.93;83.45
10310;BME280;5200;43.236;27.986;2024-01-25T10:10:26;99884.88;;;9.73;84.13
10310;BME280;5200;43.236;27.986;2024-01-25T10:12:55;99877.38;;;9.49;85.20
10310;BME280;5200;43.236;27.986;2024-01-25T10:15:23;99890.50;;;9.49;85.68
10310;BME280;5200;43.236;27.986;2024-01-25T10:17:50;99891.16;;;9.31;86.63
10310;BME280;5200;43.236;27.986;2024-01-25T10:20:17;99890.13;;;9.23;86.83
10310;BME280;5200;43.236;27.986;2024-01-25T10:22:46;99887.50;;;9.23;86.64
10310;BME280;5200;43.236;27.986;2024-01-25T10:25:14;99872.28;;;9.17;87.63
10310;BME280;5200;43.236;27.986;2024-01-25T10:27:41;99858.22;;;9.18;88.44
10310;BME280;5200;43.236;27.986;2024-01-25T10:30:10;99860.44;;;9.22;88.71
10310;BME280;5200;43.236;27.986;2024-01-25T10:32:37;99844.72;;;9.32;89.10
10310;BME280;5200;43.236;27.986;2024-01-25T10:35:04;99856.63;;;9.46;88.04
10310;BME280;5200;43.236;27.986;2024-01-25T10:37:33;99838.69;;;9.51;87.97
10310;BME280;5200;43.236;27.986;2024-01-25T10:40:00;99862.22;;;9.72;86.71
10310;BME280;5200;43.236;27.986;2024-01-25T10:42:29;99832.34;;;9.73;84.89
10310;BME280;5200;43.236;27.986;2024-01-25T10:44:57;99835.25;;;9.80;84.44
10310;BME280;5200;43.236;27.986;2024-01-25T10:47:24;99843.03;;;9.91;83.58
10310;BME280;5200;43.236;27.986;2024-01-25T10:49:53;99843.31;;;10.07;83.63
10310;BME280;5200;43.236;27.986;2024-01-25T10:52:20;99827.66;;;9.96;83.38
10310;BME280;5200;43.236;27.986;2024-01-25T10:54:47;99839.56;;;10.00;82.84
10310;BME280;5200;43.236;27.986;2024-01-25T10:57:14;99832.34;;;9.83;82.83
10310;BME280;5200;43.236;27.986;2024-01-25T10:59:44;99838.72;;;9.70;83.25
10310;BME280;5200;43.236;27.986;2024-01-25T11:02:11;99833.94;;;9.45;84.98
10310;BME280;5200;43.236;27.986;2024-01-25T11:04:37;99827.72;;;9.36;86.81
10310;BME280;5200;43.236;27.986;2024-01-25T11:07:06;99838.78;;;9.40;88.07
10310;BME280;5200;43.236;27.986;2024-01-25T11:09:35;99822.00;;;9.21;89.25
10310;BME280;5200;43.236;27.986;2024-01-25T11:12:11;99845.09;;;9.27;88.72
10310;BME280;5200;43.236;27.986;2024-01-25T11:14:39;99842.56;;;9.16;89.46
10310;BME280;5200;43.236;27.986;2024-01-25T11:17:18;99839.34;;;9.03;89.14
10310;BME280;5200;43.236;27.986;2024-01-25T11:19:46;99831.31;;;8.95;89.47
10310;BME280;5200;43.236;27.986;2024-01-25T11:22:14;99838.47;;;8.93;89.65
10310;BME280;5200;43.236;27.986;2024-01-25T11:24:41;99833.50;;;8.89;89.18
10310;BME280;5200;43.236;27.986;2024-01-25T11:27:09;99833.75;;;8.86;88.62
10310;BME280;5200;43.236;27.986;2024-01-25T11:29:38;99839.84;;;8.87;89.86
10310;BME280;5200;43.236;27.986;2024-01-25T11:32:05;99838.47;;;8.93;89.59
10310;BME280;5200;43.236;27.986;2024-01-25T11:34:34;99838.19;;;8.96;90.41
10310;BME280;5200;43.236;27.986;2024-01-25T11:37:01;99839.50;;;9.01;89.52
10310;BME280;5200;43.236;27.986;2024-01-25T11:39:28;99841.56;;;9.07;88.96
10310;BME280;5200;43.236;27.986;2024-01-25T11:41:55;99834.00;;;9.14;87.45
10310;BME280;5200;43.236;27.986;2024-01-25T11:44:22;99843.59;;;9.25;85.58
10310;BME280;5200;43.236;27.986;2024-01-25T11:46:50;99852.97;;;9.27;86.90
10310;BME280;5200;43.236;27.986;2024-01-25T11:49:17;99835.84;;;9.23;86.66
10310;BME280;5200;43.236;27.986;2024-01-25T11:51:45;99825.88;;;9.17;84.57
10310;BME280;5200;43.236;27.986;2024-01-25T11:54:12;99846.44;;;9.22;84.82
10310;BME280;5200;43.236;27.986;2024-01-25T11:56:40;99835.22;;;9.10;84.98
10310;BME280;5200;43.236;27.986;2024-01-25T11:59:08;99835.75;;;9.04;85.16
10310;BME280;5200;43.236;27.986;2024-01-25T12:01:35;99854.00;;;9.05;85.57
10310;BME280;5200;43.236;27.986;2024-01-25T12:04:04;99850.09;;;9.00;86.25
10310;BME280;5200;43.236;27.986;2024-01-25T12:06:31;99826.78;;;8.76;87.97
10310;BME280;5200;43.236;27.986;2024-01-25T12:09:07;99833.66;;;8.67;89.06
10310;BME280;5200;43.236;27.986;2024-01-25T12:11:35;99820.88;;;8.53;89.50
10310;BME280;5200;43.236;27.986;2024-01-25T12:14:02;99860.41;;;8.61;88.93
10310;BME280;5200;43.236;27.986;2024-01-25T12:16:28;99839.34;;;8.51;89.60
10310;BME280;5200;43.236;27.986;2024-01-25T12:18:55;99839.22;;;8.53;88.27
10310;BME280;5200;43.236;27.986;2024-01-25T12:21:23;99839.03;;;8.44;88.98
10310;BME280;5200;43.236;27.986;2024-01-25T12:23:50;99839.34;;;8.30;90.68
10310;BME280;5200;43.236;27.986;2024-01-25T12:26:19;99858.84;;;8.37;90.92
10310;BME280;5200;43.236;27.986;2024-01-25T12:28:46;99845.50;;;8.29;92.13
10310;BME280;5200;43.236;27.986;2024-01-25T12:31:15;99845.56;;;8.18;93.92
10310;BME280;5200;43.236;27.986;2024-01-25T12:33:43;99839.75;;;8.14;96.23
10310;BME280;5200;43.236;27.986;2024-01-25T12:36:10;99852.59;;;8.17;96.90
10310;BME280;5200;43.236;27.986;2024-01-25T12:38:37;99866.06;;;8.13;97.89
10310;BME280;5200;43.236;27.986;2024-01-25T12:41:04;99856.94;;;8.07;98.81
10310;BME280;5200;43.236;27.986;2024-01-25T12:43:32;99864.44;;;8.12;98.55
10310;BME280;5200;43.236;27.986;2024-01-25T12:45:59;99857.28;;;8.14;98.09
10310;BME280;5200;43.236;27.986;2024-01-25T12:48:26;99850.28;;;8.03;98.16
10310;BME280;5200;43.236;27.986;2024-01-25T12:50:53;99837.75;;;8.07;97.62
10310;BME280;5200;43.236;27.986;2024-01-25T12:53:20;99854.03;;;8.21;96.85
10310;BME280;5200;43.236;27.986;2024-01-25T12:55:47;99856.25;;;8.26;96.78
10310;BME280;5200;43.236;27.986;2024-01-25T12:58:14;99855.19;;;8.29;96.05
10310;BME280;5200;43.236;27.986;2024-01-25T13:00:42;99859.59;;;8.28;96.08
10310;BME280;5200;43.236;27.986;2024-01-25T13:03:10;99870.00;;;8.39;95.99
10310;BME280;5200;43.236;27.986;2024-01-25T13:05:37;99847.19;;;8.30;95.26